Time;durP1;ratioP1;P1;durP2;ratioP2;P2;SDS_P1;SDS_P2;PMS_P1;PMS_P2;Temp;Humidity;BMP_temperature;BMP_pressure;BME280_temperature;BME280_humidity;BME280_pressure;Samples;Min_cycle;Max_cycle;Signal;HPM_P1;HPM_P2
2022/09/17 00:02:54;;;;;;;4.43;0.73;;;;;;;;;;4992667;28;20418;-75
2022/09/17 00:08:57;;;;;;;1.42;0.60;;;;;;;;;;4987968;28;20417;-75
2022/09/17 00:16:01;;;;;;;8.85;2.10;;;;;;;;;;5004514;28;20066;-76
2022/09/17 00:19:07;;;;;;;6.93;1.65;;;;;;;;;;5004300;28;20057;-72
2022/09/17 00:21:37;;;;;;;3.47;0.98;;;;;;;;;;4987902;28;20068;-74
2022/09/17 00:24:07;;;;;;;3.58;0.68;;;;;;;;;;5004666;28;20050;-73
2022/09/17 00:26:37;;;;;;;8.23;1.48;;;;;;;;;;5004096;28;20061;-76
2022/09/17 00:29:08;;;;;;;4.15;0.70;;;;;;;;;;4987514;28;20049;-74
2022/09/17 00:31:38;;;;;;;5.70;0.88;;;;;;;;;;5004910;28;20229;-75
2022/09/17 00:34:09;;;;;;;3.65;0.80;;;;;;;;;;5004543;28;20076;-74
2022/09/17 00:36:39;;;;;;;9.85;1.02;;;;;;;;;;5004774;28;20080;-72
2022/09/17 00:39:11;;;;;;;5.25;1.30;;;;;;;;;;5004435;28;20058;-73
2022/09/17 00:41:42;;;;;;;4.47;1.50;;;;;;;;;;5004169;28;20081;-72
2022/09/17 00:44:40;;;;;;;5.47;1.17;;;;;;;;;;4985464;28;20069;-78
2022/09/17 00:47:24;;;;;;;5.07;1.10;;;;;;;;;;4984225;28;20054;-75
2022/09/17 00:50:35;;;;;;;6.25;1.00;;;;;;;;;;4986003;28;20058;-72
2022/09/17 00:53:18;;;;;;;6.85;1.17;;;;;;;;;;4985398;28;20058;-74
2022/09/17 00:55:54;;;;;;;2.97;0.85;;;;;;;;;;4986927;28;20054;-72
2022/09/17 00:58:26;;;;;;;6.80;1.13;;;;;;;;;;4987213;28;20489;-74
2022/09/17 01:00:56;;;;;;;5.63;0.80;;;;;;;;;;4987559;28;20053;-71
2022/09/17 01:03:26;;;;;;;4.20;0.95;;;;;;;;;;4987266;28;20055;-75
2022/09/17 01:06:15;;;;;;;5.72;1.08;;;;;;;;;;4987039;28;20050;-72
2022/09/17 01:09:23;;;;;;;5.97;0.90;;;;;;;;;;4987203;28;20397;-75
2022/09/17 01:12:12;;;;;;;6.60;1.13;;;;;;;;;;4984480;28;20097;-74
2022/09/17 01:15:13;;;;;;;5.20;1.20;;;;;;;;;;4984365;28;20517;-73
2022/09/17 01:18:07;;;;;;;7.80;0.98;;;;;;;;;;4987127;28;20066;-74
2022/09/17 01:20:55;;;;;;;;;;;;;;;;;;4987627;28;20523;-76
2022/09/17 01:23:40;;;;;;;5.63;1.30;;;;;;;;;;4989706;28;20396;-74
2022/09/17 01:26:16;;;;;;;9.35;0.90;;;;;;;;;;4990355;28;20050;-72
2022/09/17 01:28:56;;;;;;;5.35;1.45;;;;;;;;;;4991070;28;20437;-71
2022/09/17 01:31:34;;;;;;;5.70;1.45;;;;;;;;;;4990977;28;20406;-73
2022/09/17 01:34:26;;;;;;;9.30;1.10;;;;;;;;;;4990908;28;20054;-73
2022/09/17 01:37:10;;;;;;;6.07;0.88;;;;;;;;;;4990605;28;20042;-73
2022/09/17 01:39:51;;;;;;;6.60;0.85;;;;;;;;;;4990626;28;20072;-75
2022/09/17 01:42:24;;;;;;;5.45;0.82;;;;;;;;;;4990743;28;20514;-72
2022/09/17 01:45:00;;;;;;;6.65;1.05;;;;;;;;;;4987434;28;20054;-72
2022/09/17 01:47:41;;;;;;;7.10;0.90;;;;;;;;;;4988549;28;20050;-76
2022/09/17 01:50:19;;;;;;;5.78;1.23;;;;;;;;;;4989538;28;20548;-76
2022/09/17 01:52:52;;;;;;;10.13;1.20;;;;;;;;;;4989006;28;20054;-71
2022/09/17 01:55:29;;;;;;;8.15;1.00;;;;;;;;;;4989226;28;20061;-74
2022/09/17 01:58:06;;;;;;;1.70;0.52;;;;;;;;;;4989726;28;20042;-72
2022/09/17 02:00:41;;;;;;;4.88;0.80;;;;;;;;;;4990440;28;20042;-74
2022/09/17 02:03:48;;;;;;;8.15;1.67;;;;;;;;;;4990769;28;20046;-72
2022/09/17 02:06:26;;;;;;;6.35;1.15;;;;;;;;;;4989171;28;20525;-72
2022/09/17 02:09:07;;;;;;;7.45;0.70;;;;;;;;;;4989860;28;20054;-73
2022/09/17 02:11:47;;;;;;;3.42;0.75;;;;;;;;;;4990237;28;20050;-74
2022/09/17 02:14:25;;;;;;;6.25;1.15;;;;;;;;;;4989966;28;20038;-75
2022/09/17 02:17:05;;;;;;;2.72;1.02;;;;;;;;;;4989843;28;20042;-71
2022/09/17 02:19:37;;;;;;;2.80;0.80;;;;;;;;;;4989693;28;20050;-71
2022/09/17 02:22:29;;;;;;;5.40;0.80;;;;;;;;;;4990446;28;20058;-72
2022/09/17 02:25:06;;;;;;;4.95;0.60;;;;;;;;;;4990410;28;20053;-73
2022/09/17 02:27:49;;;;;;;4.00;0.75;;;;;;;;;;4989962;28;20042;-75
2022/09/17 02:30:20;;;;;;;4.20;0.70;;;;;;;;;;4990782;28;20038;-73
2022/09/17 02:32:55;;;;;;;4.68;0.50;;;;;;;;;;4988508;28;20414;-71
2022/09/17 02:35:25;;;;;;;9.35;1.15;;;;;;;;;;4989980;28;20057;-73
2022/09/17 02:37:55;;;;;;;2.45;0.50;;;;;;;;;;4989475;28;20046;-74
2022/09/17 02:40:30;;;;;;;4.90;0.88;;;;;;;;;;4989445;28;20054;-72
2022/09/17 02:43:19;;;;;;;5.55;0.85;;;;;;;;;;4989204;28;20061;-73
2022/09/17 02:46:05;;;;;;;7.63;0.57;;;;;;;;;;4989413;28;20409;-74
2022/09/17 02:49:06;;;;;;;4.70;0.70;;;;;;;;;;4989187;28;20521;-73
2022/09/17 02:52:00;;;;;;;4.15;0.93;;;;;;;;;;4989412;28;20038;-72
2022/09/17 02:55:15;;;;;;;5.00;0.80;;;;;;;;;;4989645;28;20043;-72
2022/09/17 02:57:57;;;;;;;9.52;0.85;;;;;;;;;;4986733;28;20167;-73
2022/09/17 03:00:27;;;;;;;4.28;0.60;;;;;;;;;;4987540;28;20066;-73
2022/09/17 03:03:06;;;;;;;4.38;0.88;;;;;;;;;;4988793;28;20095;-74
2022/09/17 03:05:40;;;;;;;7.50;0.70;;;;;;;;;;4996055;28;20054;-71
2022/09/17 03:08:13;;;;;;;3.78;0.73;;;;;;;;;;4994034;28;20046;-72
2022/09/17 03:10:43;;;;;;;6.68;0.75;;;;;;;;;;4987123;28;20053;-73
2022/09/17 03:13:14;;;;;;;3.10;0.98;;;;;;;;;;4988812;28;20054;-74
2022/09/17 03:15:43;;;;;;;10.00;0.80;;;;;;;;;;4989423;28;20046;-74
2022/09/17 03:18:13;;;;;;;;;;;;;;;;;;4989472;28;20061;-70
2022/09/17 03:20:42;;;;;;;2.28;0.50;;;;;;;;;;4989200;28;19933;-71
2022/09/17 03:23:12;;;;;;;3.80;0.88;;;;;;;;;;4988959;28;20042;-70
2022/09/17 03:25:42;;;;;;;3.20;0.57;;;;;;;;;;4988535;28;20065;-74
2022/09/17 03:28:11;;;;;;;;;;;;;;;;;;4989318;28;20497;-72
2022/09/17 03:30:45;;;;;;;4.97;0.60;;;;;;;;;;4988658;28;19933;-72
2022/09/17 03:33:16;;;;;;;2.08;0.55;;;;;;;;;;4988517;28;20058;-74
2022/09/17 03:35:46;;;;;;;9.30;1.00;;;;;;;;;;4988460;28;20058;-74
2022/09/17 03:38:17;;;;;;;1.42;0.80;;;;;;;;;;4987962;28;20513;-70
2022/09/17 03:40:55;;;;;;;;;;;;;;;;;;4988798;28;20639;-75
2022/09/17 03:43:26;;;;;;;4.75;0.93;;;;;;;;;;4987321;28;19936;-71
2022/09/17 03:45:56;;;;;;;6.30;0.60;;;;;;;;;;4988522;28;20054;-74
2022/09/17 03:48:29;;;;;;;3.40;0.40;;;;;;;;;;4988488;28;20057;-71
2022/09/17 03:50:59;;;;;;;2.95;0.50;;;;;;;;;;4987629;28;20065;-71
2022/09/17 03:53:29;;;;;;;7.75;0.82;;;;;;;;;;4987714;28;20047;-74
2022/09/17 03:56:02;;;;;;;4.30;1.00;;;;;;;;;;4988450;28;20065;-73
2022/09/17 03:58:33;;;;;;;3.78;0.80;;;;;;;;;;4988380;28;20050;-74
2022/09/17 04:01:03;;;;;;;5.03;1.00;;;;;;;;;;4988039;28;20069;-72
2022/09/17 04:03:36;;;;;;;1.67;0.40;;;;;;;;;;4987597;28;20056;-70
2022/09/17 04:06:06;;;;;;;2.15;0.80;;;;;;;;;;4987849;28;20046;-75
2022/09/17 04:08:35;;;;;;;3.35;0.70;;;;;;;;;;4986168;28;20058;-74
2022/09/17 04:11:06;;;;;;;;;;;;;;;;;;4988408;28;20053;-72
2022/09/17 04:13:36;;;;;;;7.95;0.45;;;;;;;;;;4988136;28;19947;-74
2022/09/17 04:16:05;;;;;;;;;;;;;;;;;;4987937;28;20474;-72
2022/09/17 04:18:35;;;;;;;5.03;0.68;;;;;;;;;;4987790;28;20288;-72
2022/09/17 04:21:05;;;;;;;;;;;;;;;;;;4988118;28;20043;-74
2022/09/17 04:23:34;;;;;;;2.80;0.68;;;;;;;;;;4987469;28;19933;-71
2022/09/17 04:26:04;;;;;;;2.97;0.43;;;;;;;;;;4987873;28;20042;-75
2022/09/17 04:28:34;;;;;;;5.90;0.93;;;;;;;;;;4987434;28;20050;-71
2022/09/17 04:31:03;;;;;;;;;;;;;;;;;;4988349;28;20046;-73
2022/09/17 04:33:33;;;;;;;5.40;0.50;;;;;;;;;;4986738;28;19925;-74
2022/09/17 04:36:03;;;;;;;1.83;0.57;;;;;;;;;;4987799;28;20050;-72
2022/09/17 04:38:33;;;;;;;4.65;0.40;;;;;;;;;;4987650;28;20510;-75
2022/09/17 04:41:06;;;;;;;5.05;0.85;;;;;;;;;;4987215;28;20046;-72
2022/09/17 04:43:36;;;;;;;3.13;0.88;;;;;;;;;;4987917;28;20364;-71
2022/09/17 04:46:06;;;;;;;;;;;;;;;;;;4986932;28;20066;-74
2022/09/17 04:48:37;;;;;;;4.75;0.77;;;;;;;;;;4987370;28;19926;-74
2022/09/17 04:51:07;;;;;;;4.07;0.73;;;;;;;;;;4987093;28;20042;-70
2022/09/17 04:53:37;;;;;;;4.75;0.60;;;;;;;;;;4987953;28;20046;-72
2022/09/17 04:56:07;;;;;;;3.83;0.70;;;;;;;;;;4987508;28;20042;-71
2022/09/17 04:58:37;;;;;;;;;;;;;;;;;;4986508;28;20063;-74
2022/09/17 05:01:07;;;;;;;2.25;0.40;;;;;;;;;;4987390;28;19930;-73
2022/09/17 05:03:37;;;;;;;1.13;0.50;;;;;;;;;;4986035;28;20057;-72
2022/09/17 05:06:07;;;;;;;7.57;0.75;;;;;;;;;;4987177;28;20054;-73
2022/09/17 05:08:37;;;;;;;1.52;0.50;;;;;;;;;;4986891;28;20050;-75
2022/09/17 05:11:06;;;;;;;;;;;;;;;;;;4986164;28;20077;-74
2022/09/17 05:13:36;;;;;;;0.68;0.40;;;;;;;;;;4987380;28;19926;-73
2022/09/17 05:16:06;;;;;;;8.48;0.70;;;;;;;;;;4987264;28;20069;-75
2022/09/17 05:18:35;;;;;;;;;;;;;;;;;;4987165;28;20062;-73
2022/09/17 05:21:05;;;;;;;1.85;0.80;;;;;;;;;;4987116;28;20296;-74
2022/09/17 05:23:35;;;;;;;0.70;0.40;;;;;;;;;;4985962;28;20046;-72
2022/09/17 05:26:05;;;;;;;2.25;0.73;;;;;;;;;;4987421;28;20057;-72
2022/09/17 05:28:34;;;;;;;;;;;;;;;;;;4987321;28;20050;-70
2022/09/17 05:31:04;;;;;;;0.52;0.20;;;;;;;;;;4985877;28;19932;-72
2022/09/17 05:33:34;;;;;;;5.88;1.20;;;;;;;;;;4986750;28;20050;-70
2022/09/17 05:36:04;;;;;;;3.55;0.60;;;;;;;;;;4986607;28;20054;-73
2022/09/17 05:38:34;;;;;;;3.25;0.50;;;;;;;;;;4986989;28;20497;-72
2022/09/17 05:41:05;;;;;;;5.90;0.88;;;;;;;;;;4987073;28;20050;-74
2022/09/17 05:43:35;;;;;;;3.72;0.98;;;;;;;;;;4986865;28;20046;-73
2022/09/17 05:46:05;;;;;;;1.88;0.40;;;;;;;;;;4987364;28;20054;-72
2022/09/17 05:48:36;;;;;;;1.45;0.70;;;;;;;;;;4986999;28;20050;-72
2022/09/17 05:51:05;;;;;;;2.35;0.32;;;;;;;;;;4987171;28;20474;-73
2022/09/17 05:53:37;;;;;;;4.00;0.47;;;;;;;;;;4987022;28;20050;-72
2022/09/17 05:56:06;;;;;;;2.00;0.57;;;;;;;;;;4987611;28;20054;-75
2022/09/17 05:58:36;;;;;;;4.93;1.00;;;;;;;;;;4987283;28;20050;-74
2022/09/17 06:01:06;;;;;;;1.60;0.63;;;;;;;;;;4986865;28;20061;-73
2022/09/17 06:03:35;;;;;;;;;;;;;;;;;;4986910;28;20399;-73
2022/09/17 06:06:05;;;;;;;2.22;0.60;;;;;;;;;;4986323;28;19926;-72
2022/09/17 06:08:35;;;;;;;;;;;;;;;;;;4990544;28;20367;-71
2022/09/17 06:11:06;;;;;;;2.58;0.57;;;;;;;;;;4990230;28;19933;-75
2022/09/17 06:13:37;;;;;;;4.35;0.50;;;;;;;;;;4990573;28;20433;-72
2022/09/17 06:16:06;;;;;;;2.22;0.50;;;;;;;;;;4990350;28;20401;-72
2022/09/17 06:18:35;;;;;;;;;;;;;;;;;;4995554;28;20050;-71
2022/09/17 06:21:05;;;;;;;3.55;0.52;;;;;;;;;;4998070;28;19925;-71
2022/09/17 06:23:35;;;;;;;;;;;;;;;;;;4991205;28;20489;-71
2022/09/17 06:26:06;;;;;;;2.40;0.60;;;;;;;;;;4989820;28;19925;-74
2022/09/17 06:28:36;;;;;;;4.07;0.60;;;;;;;;;;4989616;28;20054;-74
2022/09/17 06:31:11;;;;;;;5.40;0.77;;;;;;;;;;4988701;28;20062;-72
2022/09/17 06:33:42;;;;;;;3.22;0.40;;;;;;;;;;4989532;28;20635;-72
2022/09/17 06:36:12;;;;;;;4.15;0.75;;;;;;;;;;4989677;28;20059;-70
2022/09/17 06:38:42;;;;;;;6.72;0.70;;;;;;;;;;4990009;28;20045;-73
2022/09/17 06:41:13;;;;;;;7.05;0.68;;;;;;;;;;4989451;28;20585;-73
2022/09/17 06:43:43;;;;;;;1.73;0.47;;;;;;;;;;4989631;28;20054;-75
2022/09/17 06:46:13;;;;;;;6.18;0.68;;;;;;;;;;4989502;28;20424;-75
2022/09/17 06:48:43;;;;;;;1.70;0.73;;;;;;;;;;4989618;28;20563;-74
2022/09/17 06:51:13;;;;;;;1.42;0.40;;;;;;;;;;4989514;28;20100;-72
2022/09/17 06:53:43;;;;;;;2.25;0.52;;;;;;;;;;4989313;28;20054;-75
2022/09/17 06:56:13;;;;;;;3.40;0.90;;;;;;;;;;4989172;28;20046;-74
2022/09/17 06:58:43;;;;;;;1.38;0.57;;;;;;;;;;4989185;28;20057;-75
2022/09/17 07:01:12;;;;;;;;;;;;;;;;;;4990114;28;20050;-72
2022/09/17 07:03:42;;;;;;;8.60;0.60;;;;;;;;;;4989206;28;19925;-73
2022/09/17 07:06:12;;;;;;;1.88;0.43;;;;;;;;;;4988779;28;20042;-73
2022/09/17 07:19:41;;;;;;;4.07;0.88;;;;;;;;;;5126659;27;20964;-74
2022/09/17 07:22:12;;;;;;;3.00;0.60;;;;;;;;;;5124524;28;20062;-74
2022/09/17 07:24:43;;;;;;;6.05;0.82;;;;;;;;;;5123924;28;20051;-74
2022/09/17 07:27:13;;;;;;;1.27;0.70;;;;;;;;;;5124406;28;20055;-73
2022/09/17 07:29:43;;;;;;;2.05;0.65;;;;;;;;;;5124450;28;20043;-71
2022/09/17 07:32:13;;;;;;;3.22;0.80;;;;;;;;;;5124564;28;20051;-71
2022/09/17 07:34:43;;;;;;;4.97;0.68;;;;;;;;;;5122296;28;20055;-72
2022/09/17 07:37:12;;;;;;;1.23;0.50;;;;;;;;;;5124296;28;20051;-70
2022/09/17 07:39:42;;;;;;;;;;;;;;;;;;5124656;28;20054;-72
2022/09/17 07:42:12;;;;;;;6.45;0.73;;;;;;;;;;5124726;28;20401;-74
2022/09/17 07:44:43;;;;;;;5.68;1.08;;;;;;;;;;5124654;28;20051;-72
2022/09/17 07:47:12;;;;;;;4.38;0.77;;;;;;;;;;5122249;28;20058;-74
2022/09/17 07:49:42;;;;;;;2.88;0.60;;;;;;;;;;5122544;28;20535;-72
2022/09/17 07:52:12;;;;;;;2.83;0.77;;;;;;;;;;5123947;28;20043;-72
2022/09/17 07:54:42;;;;;;;3.97;0.52;;;;;;;;;;5124065;28;20059;-71
2022/09/17 07:57:11;;;;;;;3.65;0.90;;;;;;;;;;5124245;28;20061;-70
2022/09/17 07:59:41;;;;;;;;;;;;;;;;;;5124847;28;20048;-73
2022/09/17 08:02:13;;;;;;;2.15;0.50;;;;;;;;;;5123776;28;19923;-73
2022/09/17 08:04:46;;;;;;;1.58;0.52;;;;;;;;;;5123782;28;20405;-71
2022/09/17 08:07:16;;;;;;;4.60;1.20;;;;;;;;;;5123564;27;20054;-72
2022/09/17 08:09:48;;;;;;;3.95;1.00;;;;;;;;;;5123876;28;20058;-72
2022/09/17 08:12:18;;;;;;;6.72;1.27;;;;;;;;;;5122892;27;20054;-72
2022/09/17 08:14:48;;;;;;;2.28;0.80;;;;;;;;;;5124019;28;20047;-73
2022/09/17 08:17:17;;;;;;;4.30;0.73;;;;;;;;;;5124185;27;21143;-72
2022/09/17 08:19:47;;;;;;;5.30;0.90;;;;;;;;;;5135476;27;20459;-73
2022/09/17 08:22:17;;;;;;;1.17;0.50;;;;;;;;;;5130317;27;20350;-73
2022/09/17 08:24:48;;;;;;;1.63;0.70;;;;;;;;;;5130228;27;20047;-74
2022/09/17 08:27:17;;;;;;;1.73;0.80;;;;;;;;;;5130222;27;20054;-73
2022/09/17 08:29:47;;;;;;;2.58;0.80;;;;;;;;;;5130066;27;20066;-73
2022/09/17 08:32:17;;;;;;;1.00;0.45;;;;;;;;;;5130009;27;20393;-71
2022/09/17 08:34:47;;;;;;;2.20;0.63;;;;;;;;;;5130193;27;20047;-70
2022/09/17 08:37:16;;;;;;;1.83;0.70;;;;;;;;;;5129385;27;20043;-72
2022/09/17 08:39:46;;;;;;;1.15;0.65;;;;;;;;;;5130129;27;20046;-70
2022/09/17 08:42:24;;;;;;;1.38;0.75;;;;;;;;;;5129899;27;20054;-74
2022/09/17 08:44:56;;;;;;;2.88;0.90;;;;;;;;;;5130419;27;20509;-73
2022/09/17 08:47:37;;;;;;;0.60;0.60;;;;;;;;;;5129863;27;20031;-70
2022/09/17 08:50:14;;;;;;;5.40;0.80;;;;;;;;;;5128022;27;20051;-72
2022/09/17 08:53:03;;;;;;;0.88;0.60;;;;;;;;;;5129538;27;20534;-74
2022/09/17 08:55:57;;;;;;;2.85;0.50;;;;;;;;;;5129533;27;20393;-71
2022/09/17 08:58:35;;;;;;;7.88;0.70;;;;;;;;;;5129697;27;20405;-74
2022/09/17 09:01:38;;;;;;;3.53;1.20;;;;;;;;;;5129471;27;20055;-74
2022/09/17 09:04:35;;;;;;;1.95;0.80;;;;;;;;;;5128431;27;20047;-71
2022/09/17 09:07:16;;;;;;;3.45;0.80;;;;;;;;;;5127951;27;20062;-74
2022/09/17 09:10:09;;;;;;;1.58;0.80;;;;;;;;;;5129091;27;20058;-73
2022/09/17 09:12:41;;;;;;;3.38;0.55;;;;;;;;;;5128966;27;20047;-73
2022/09/17 09:15:40;;;;;;;0.63;0.50;;;;;;;;;;5129821;27;20039;-71
2022/09/17 09:18:30;;;;;;;5.53;0.90;;;;;;;;;;5128560;27;20051;-73
2022/09/17 09:21:04;;;;;;;3.35;0.88;;;;;;;;;;5129376;27;20054;-73
2022/09/17 09:23:51;;;;;;;2.63;0.75;;;;;;;;;;5129267;27;20062;-70
2022/09/17 09:26:49;;;;;;;6.03;1.10;;;;;;;;;;5129005;27;20362;-73
2022/09/17 09:29:38;;;;;;;4.10;1.45;;;;;;;;;;5129271;27;21082;-71
2022/09/17 09:32:19;;;;;;;2.80;0.75;;;;;;;;;;5127649;27;20405;-71
2022/09/17 09:34:50;;;;;;;1.90;1.30;;;;;;;;;;5129314;27;20051;-70
2022/09/17 09:37:30;;;;;;;4.68;1.05;;;;;;;;;;5126606;27;20051;-71
2022/09/17 09:40:27;;;;;;;4.03;0.93;;;;;;;;;;5129107;27;20063;-71
2022/09/17 09:43:02;;;;;;;2.38;0.85;;;;;;;;;;5128640;27;20043;-69
2022/09/17 09:45:56;;;;;;;3.40;1.00;;;;;;;;;;5128396;27;20058;-71
2022/09/17 09:48:53;;;;;;;2.47;0.47;;;;;;;;;;5129244;27;20408;-73
2022/09/17 09:51:58;;;;;;;2.47;0.82;;;;;;;;;;5128405;27;20051;-70
2022/09/17 09:54:52;;;;;;;3.63;0.50;;;;;;;;;;5128740;27;20374;-70
2022/09/17 09:57:45;;;;;;;3.95;0.85;;;;;;;;;;5127126;27;20402;-72
2022/09/17 10:00:34;;;;;;;2.60;0.80;;;;;;;;;;5128564;27;20505;-71
2022/09/17 10:03:17;;;;;;;4.97;0.95;;;;;;;;;;5128382;27;20536;-71
2022/09/17 10:05:59;;;;;;;2.55;0.88;;;;;;;;;;5126746;27;20523;-73
2022/09/17 10:08:34;;;;;;;2.33;0.63;;;;;;;;;;5127805;27;20054;-70
2022/09/17 10:11:04;;;;;;;2.30;0.68;;;;;;;;;;5128667;27;20058;-70
2022/09/17 10:13:34;;;;;;;;;;;;;;;;;;5128677;27;20051;-71
2022/09/17 10:16:19;;;;;;;3.72;0.98;;;;;;;;;;5127036;27;19919;-71
2022/09/17 10:19:10;;;;;;;8.35;1.27;;;;;;;;;;5128240;27;20066;-75
2022/09/17 10:21:42;;;;;;;8.27;0.73;;;;;;;;;;5127717;27;20047;-74
2022/09/17 10:24:30;;;;;;;2.67;0.73;;;;;;;;;;5128145;27;20046;-71
2022/09/17 10:27:10;;;;;;;5.60;0.70;;;;;;;;;;5127743;27;20050;-71
2022/09/17 10:29:45;;;;;;;1.17;0.70;;;;;;;;;;5127248;27;20053;-71
2022/09/17 10:32:18;;;;;;;4.20;0.90;;;;;;;;;;5128036;27;20105;-76
2022/09/17 10:35:27;;;;;;;1.05;0.77;;;;;;;;;;5127489;27;20414;-72
2022/09/17 10:37:57;;;;;;;6.00;1.08;;;;;;;;;;5127739;27;20043;-70
2022/09/17 10:40:27;;;;;;;;;;;;;;;;;;5128275;27;20047;-72
2022/09/17 10:43:15;;;;;;;0.80;0.80;;;;;;;;;;5129141;27;19919;-72
2022/09/17 10:45:55;;;;;;;5.40;0.50;;;;;;;;;;5129470;27;20047;-76
2022/09/17 10:48:31;;;;;;;2.80;0.75;;;;;;;;;;5127778;27;20047;-70
2022/09/17 10:51:02;;;;;;;3.60;0.85;;;;;;;;;;5128224;27;20046;-72
2022/09/17 10:53:55;;;;;;;5.53;0.77;;;;;;;;;;5127549;27;20489;-71
2022/09/17 10:56:35;;;;;;;5.28;0.77;;;;;;;;;;5127240;27;20405;-70
2022/09/17 10:59:34;;;;;;;3.47;0.63;;;;;;;;;;5127986;27;20078;-70
2022/09/17 11:02:48;;;;;;;2.28;0.60;;;;;;;;;;5125546;27;20054;-72
2022/09/17 11:05:36;;;;;;;2.05;0.82;;;;;;;;;;5063562;28;20059;-74
2022/09/17 11:08:30;;;;;;;8.52;1.52;;;;;;;;;;5063475;28;20052;-75
2022/09/17 11:11:09;;;;;;;7.70;1.00;;;;;;;;;;5116695;27;20536;-71
2022/09/17 11:14:21;;;;;;;1.25;0.88;;;;;;;;;;5127294;28;20043;-74
2022/09/17 11:16:55;;;;;;;1.10;0.70;;;;;;;;;;5127259;28;20070;-73
2022/09/17 11:19:57;;;;;;;3.42;1.00;;;;;;;;;;5128018;28;20432;-74
2022/09/17 11:22:51;;;;;;;1.63;1.00;;;;;;;;;;5102323;27;20059;-72
2022/09/17 11:25:51;;;;;;;5.93;2.70;;;;;;;;;;5127122;28;20043;-73
2022/09/17 11:28:43;;;;;;;3.22;1.85;;;;;;;;;;5127181;28;20500;-73
2022/09/17 11:31:30;;;;;;;5.82;2.25;;;;;;;;;;5125662;28;20043;-75
2022/09/17 11:34:04;;;;;;;4.63;1.05;;;;;;;;;;5127309;28;20043;-73
2022/09/17 11:36:54;;;;;;;4.28;0.90;;;;;;;;;;5127248;28;20061;-72
2022/09/17 11:39:49;;;;;;;4.65;1.13;;;;;;;;;;5126488;28;20057;-71
2022/09/17 11:42:24;;;;;;;2.75;0.88;;;;;;;;;;5127355;28;20050;-72
2022/09/17 11:45:01;;;;;;;1.73;0.77;;;;;;;;;;5127596;28;20054;-74
2022/09/17 11:47:39;;;;;;;1.70;0.80;;;;;;;;;;5126130;28;20085;-74
2022/09/17 11:50:23;;;;;;;2.15;0.80;;;;;;;;;;5127038;28;20035;-72
2022/09/17 11:52:59;;;;;;;3.03;0.93;;;;;;;;;;5126978;28;20096;-74
2022/09/17 11:55:44;;;;;;;3.70;0.52;;;;;;;;;;5130290;27;20039;-76
2022/09/17 11:58:37;;;;;;;1.83;0.88;;;;;;;;;;5131083;27;20046;-73
2022/09/17 12:01:21;;;;;;;2.50;0.65;;;;;;;;;;5130715;27;21057;-73
2022/09/17 12:03:59;;;;;;;4.28;0.90;;;;;;;;;;5130728;27;20051;-74
2022/09/17 12:06:42;;;;;;;1.92;0.85;;;;;;;;;;5130930;27;20043;-71
2022/09/17 12:09:20;;;;;;;3.25;0.90;;;;;;;;;;5130995;27;20050;-72
2022/09/17 12:12:15;;;;;;;1.58;0.90;;;;;;;;;;5131028;27;20058;-72
2022/09/17 12:15:21;;;;;;;4.95;0.93;;;;;;;;;;5130658;27;20047;-75
2022/09/17 12:18:16;;;;;;;4.85;1.25;;;;;;;;;;5130622;27;20055;-72
2022/09/17 12:21:04;;;;;;;3.72;1.13;;;;;;;;;;5130965;27;20047;-73
2022/09/17 12:23:46;;;;;;;3.92;1.00;;;;;;;;;;5130512;27;20512;-72
2022/09/17 12:26:54;;;;;;;3.15;0.82;;;;;;;;;;5130371;27;20493;-72
2022/09/17 12:29:30;;;;;;;1.83;1.25;;;;;;;;;;5099053;27;20048;-74
2022/09/17 12:32:34;;;;;;;6.88;1.90;;;;;;;;;;5130529;27;20047;-75
2022/09/17 12:35:32;;;;;;;1.77;1.00;;;;;;;;;;5129805;27;20054;-74
2022/09/17 12:38:30;;;;;;;9.93;1.15;;;;;;;;;;5129654;27;20047;-72
2022/09/17 12:41:16;;;;;;;2.13;0.70;;;;;;;;;;5129615;27;20105;-72
2022/09/17 12:44:24;;;;;;;2.00;0.82;;;;;;;;;;5129957;27;20497;-73
2022/09/17 12:47:21;;;;;;;5.35;0.95;;;;;;;;;;5130129;27;20047;-74
2022/09/17 12:50:04;;;;;;;4.68;0.80;;;;;;;;;;5130086;27;20043;-73
2022/09/17 12:52:56;;;;;;;5.72;1.23;;;;;;;;;;5129685;27;20059;-72
2022/09/17 12:55:53;;;;;;;2.38;0.98;;;;;;;;;;5130428;27;20653;-74
2022/09/17 12:58:43;;;;;;;3.38;0.90;;;;;;;;;;5129791;27;20042;-74
2022/09/17 13:01:30;;;;;;;2.88;0.90;;;;;;;;;;5129828;27;20051;-74
2022/09/17 13:04:31;;;;;;;2.10;0.95;;;;;;;;;;5128908;27;20043;-72
2022/09/17 13:07:40;;;;;;;1.58;0.60;;;;;;;;;;5107554;27;20051;-74
2022/09/17 13:10:38;;;;;;;1.25;0.70;;;;;;;;;;5129435;27;20078;-79
2022/09/17 13:13:22;;;;;;;1.85;0.73;;;;;;;;;;5129444;27;20035;-76
2022/09/17 13:16:18;;;;;;;2.42;0.70;;;;;;;;;;5129509;27;20049;-76
2022/09/17 13:19:14;;;;;;;3.45;0.70;;;;;;;;;;5129608;27;20055;-78
2022/09/17 13:21:45;;;;;;;3.03;1.00;;;;;;;;;;5128252;27;20046;-75
2022/09/17 13:24:17;;;;;;;1.75;0.80;;;;;;;;;;5128873;27;20532;-73
2022/09/17 13:26:48;;;;;;;2.92;1.00;;;;;;;;;;5129234;27;20050;-75
2022/09/17 13:29:45;;;;;;;4.13;0.95;;;;;;;;;;5129747;27;20070;-78
2022/09/17 13:32:34;;;;;;;0.63;0.63;;;;;;;;;;5129010;27;20047;-79
2022/09/17 13:35:13;;;;;;;5.18;1.00;;;;;;;;;;5129554;27;20062;-76
2022/09/17 13:37:44;;;;;;;1.42;0.90;;;;;;;;;;5128667;27;20058;-75
2022/09/17 13:40:34;;;;;;;7.47;1.75;;;;;;;;;;5129139;27;20054;-75
2022/09/17 13:43:05;;;;;;;2.80;0.90;;;;;;;;;;5136151;27;20046;-74
2022/09/17 13:46:00;;;;;;;17.45;8.73;;;;;;;;;;5132379;27;20047;-76
2022/09/17 13:48:33;;;;;;;1.23;0.80;;;;;;;;;;5128224;27;20043;-74
2022/09/17 13:51:31;;;;;;;8.82;1.00;;;;;;;;;;5128632;27;20039;-75
2022/09/17 13:54:04;;;;;;;3.72;0.95;;;;;;;;;;5128920;27;20478;-73
2022/09/17 13:57:23;;;;;;;5.13;1.02;;;;;;;;;;5128102;27;20042;-74
2022/09/17 13:59:59;;;;;;;7.45;1.00;;;;;;;;;;5116334;27;20069;-73
2022/09/17 14:02:38;;;;;;;2.55;1.00;;;;;;;;;;5129446;27;20043;-76
2022/09/17 14:05:30;;;;;;;1.27;0.93;;;;;;;;;;5128853;27;20054;-71
2022/09/17 14:08:11;;;;;;;1.60;0.90;;;;;;;;;;5128079;27;20113;-77
2022/09/17 14:10:43;;;;;;;4.05;0.98;;;;;;;;;;5128351;27;20054;-77
2022/09/17 14:13:40;;;;;;;3.33;1.00;;;;;;;;;;5127566;27;20524;-73
2022/09/17 14:16:36;;;;;;;4.25;0.80;;;;;;;;;;5128186;27;20106;-77
2022/09/17 14:19:15;;;;;;;4.30;1.00;;;;;;;;;;5127358;27;20055;-74
2022/09/17 14:21:58;;;;;;;3.63;0.88;;;;;;;;;;5128402;27;20047;-75
2022/09/17 14:24:43;;;;;;;2.83;0.88;;;;;;;;;;5128238;27;20540;-75
2022/09/17 14:27:19;;;;;;;7.93;2.08;;;;;;;;;;5127981;27;20505;-76
2022/09/17 14:30:21;;;;;;;9.52;1.42;;;;;;;;;;5126647;27;20050;-75
2022/09/17 14:33:00;;;;;;;0.90;0.65;;;;;;;;;;5128559;27;20051;-74
2022/09/17 14:35:32;;;;;;;3.50;0.88;;;;;;;;;;5127458;27;20043;-73
2022/09/17 14:38:14;;;;;;;2.83;0.88;;;;;;;;;;5128008;27;20043;-79
2022/09/17 14:41:08;;;;;;;1.35;0.80;;;;;;;;;;5128322;27;20497;-74
2022/09/17 14:43:56;;;;;;;2.22;0.95;;;;;;;;;;5120631;27;20066;-74
2022/09/17 14:46:44;;;;;;;2.83;0.77;;;;;;;;;;5127304;27;20043;-77
2022/09/17 14:49:27;;;;;;;2.88;1.00;;;;;;;;;;5127831;27;20047;-75
2022/09/17 14:51:58;;;;;;;5.03;1.27;;;;;;;;;;5126228;27;20051;-75
2022/09/17 14:54:32;;;;;;;3.72;1.02;;;;;;;;;;5125644;27;20055;-74
2022/09/17 14:57:26;;;;;;;4.32;1.27;;;;;;;;;;5127273;27;20062;-76
2022/09/17 14:59:58;;;;;;;5.00;1.23;;;;;;;;;;5127269;27;20058;-76
2022/09/17 15:02:40;;;;;;;4.53;1.00;;;;;;;;;;5127824;27;20043;-72
2022/09/17 15:05:38;;;;;;;2.55;0.85;;;;;;;;;;5127721;27;20520;-76
2022/09/17 15:08:15;;;;;;;2.08;0.75;;;;;;;;;;5128227;28;20058;-76
2022/09/17 15:10:58;;;;;;;1.50;0.95;;;;;;;;;;5127441;28;20058;-75
2022/09/17 15:13:32;;;;;;;2.55;0.70;;;;;;;;;;5127054;28;20039;-74
2022/09/17 15:16:10;;;;;;;2.38;0.93;;;;;;;;;;5127669;28;20043;-74
2022/09/17 15:19:02;;;;;;;2.83;0.70;;;;;;;;;;5127104;28;20067;-75
2022/09/17 15:21:39;;;;;;;2.10;0.82;;;;;;;;;;5127040;28;20051;-75
2022/09/17 15:24:22;;;;;;;1.35;0.82;;;;;;;;;;5127020;28;20047;-72
2022/09/17 15:26:57;;;;;;;1.38;0.60;;;;;;;;;;5127210;28;20065;-74
2022/09/17 15:29:30;;;;;;;2.75;0.80;;;;;;;;;;5127412;27;20145;-75
2022/09/17 15:32:05;;;;;;;3.78;0.85;;;;;;;;;;5131135;27;20378;-72
2022/09/17 15:34:35;;;;;;;4.38;0.93;;;;;;;;;;5131525;27;20039;-75
2022/09/17 15:37:06;;;;;;;4.40;1.08;;;;;;;;;;5131575;27;20511;-76
2022/09/17 15:39:41;;;;;;;1.80;0.77;;;;;;;;;;5131291;27;20047;-73
2022/09/17 15:42:28;;;;;;;3.22;0.70;;;;;;;;;;5131182;27;20046;-74
2022/09/17 15:45:25;;;;;;;2.58;0.93;;;;;;;;;;5130801;27;20070;-75
2022/09/17 15:47:59;;;;;;;4.35;1.00;;;;;;;;;;5131067;27;20043;-76
2022/09/17 15:50:51;;;;;;;3.03;0.70;;;;;;;;;;5130267;27;20051;-73
2022/09/17 15:53:30;;;;;;;2.90;0.65;;;;;;;;;;5130467;27;20042;-76
2022/09/17 15:56:12;;;;;;;3.28;1.10;;;;;;;;;;5131547;27;20042;-76
2022/09/17 15:58:45;;;;;;;2.00;0.77;;;;;;;;;;5130741;27;20043;-72
2022/09/17 16:01:16;;;;;;;4.10;0.80;;;;;;;;;;5130202;27;20051;-73
2022/09/17 16:03:47;;;;;;;2.75;0.93;;;;;;;;;;5130659;27;20058;-71
2022/09/17 16:06:19;;;;;;;3.50;0.65;;;;;;;;;;5130942;27;20481;-74
2022/09/17 16:08:51;;;;;;;1.83;0.73;;;;;;;;;;5130345;27;20394;-74
2022/09/17 16:11:23;;;;;;;2.42;0.80;;;;;;;;;;5131125;27;20051;-75
2022/09/17 16:13:56;;;;;;;2.75;0.85;;;;;;;;;;5130612;27;20042;-73
2022/09/17 16:16:37;;;;;;;2.70;1.08;;;;;;;;;;5130464;27;20755;-72
2022/09/17 16:19:09;;;;;;;4.43;1.10;;;;;;;;;;5130349;27;20054;-74
2022/09/17 16:21:39;;;;;;;2.15;1.10;;;;;;;;;;5130891;27;20055;-75